Time;durP1;ratioP1;P1;durP2;ratioP2;P2;SDS_P1;SDS_P2;PMS_P1;PMS_P2;Temp;Humidity;BMP_temperature;BMP_pressure;BME280_temperature;BME280_humidity;BME280_pressure;Samples;Min_cycle;Max_cycle;Signal;HPM_P1;HPM_P2
2022/10/08 00:00:41;;;;;;;;;2.00;2.00;;;;;;;;5075655;27;45468;-71
2022/10/08 00:03:06;;;;;;;;;3.00;1.67;;;;;;;;5075394;27;45357;-71
2022/10/08 00:05:31;;;;;;;;;2.00;2.00;;;;;;;;5072092;27;45458;-71
2022/10/08 00:07:56;;;;;;;;;2.00;2.00;;;;;;;;5075718;27;45421;-71
2022/10/08 00:10:21;;;;;;;;;1.00;1.00;;;;;;;;5075083;27;45288;-71
2022/10/08 00:12:46;;;;;;;;;2.00;2.00;;;;;;;;5075545;27;45903;-71
2022/10/08 00:15:12;;;;;;;;;1.67;1.00;;;;;;;;5075085;27;46116;-71
2022/10/08 00:17:37;;;;;;;;;1.00;1.00;;;;;;;;5075661;27;45400;-70
2022/10/08 00:20:02;;;;;;;;;2.00;1.00;;;;;;;;5075259;27;45531;-71
2022/10/08 00:22:27;;;;;;;;;1.00;1.00;;;;;;;;5075544;27;45389;-71
2022/10/08 00:24:54;;;;;;;;;1.00;1.00;;;;;;;;5062854;27;45514;-71
2022/10/08 00:27:22;;;;;;;;;1.33;1.33;;;;;;;;5073078;28;45495;-71
2022/10/08 00:29:48;;;;;;;;;2.67;2.00;;;;;;;;5075235;27;45451;-71
2022/10/08 00:32:13;;;;;;;;;3.00;1.00;;;;;;;;5075061;27;45420;-71
2022/10/08 00:34:38;;;;;;;;;1.00;1.00;;;;;;;;5075091;27;46404;-71
2022/10/08 00:37:04;;;;;;;;;2.00;1.00;;;;;;;;5060776;27;45337;-71
2022/10/08 00:39:29;;;;;;;;;1.00;1.00;;;;;;;;5074863;27;45777;-71
2022/10/08 00:41:55;;;;;;;;;1.33;1.33;;;;;;;;5074953;27;45478;-71
2022/10/08 00:44:39;;;;;;;;;1.33;1.00;;;;;;;;5074588;27;47305;-72
2022/10/08 00:47:06;;;;;;;;;2.33;1.00;;;;;;;;5063584;28;45333;-71
2022/10/08 00:49:31;;;;;;;;;4.00;1.00;;;;;;;;5074901;28;45446;-71
2022/10/08 00:51:57;;;;;;;;;1.00;1.00;;;;;;;;5074952;27;45465;-71
2022/10/08 00:54:22;;;;;;;;;1.00;1.00;;;;;;;;5061421;27;45631;-71
2022/10/08 00:56:50;;;;;;;;;2.00;2.00;;;;;;;;5073440;28;45473;-71
2022/10/08 00:59:15;;;;;;;;;1.00;1.00;;;;;;;;5074836;27;45370;-71
2022/10/08 01:01:42;;;;;;;;;2.00;1.00;;;;;;;;5074505;28;45453;-71
2022/10/08 01:04:08;;;;;;;;;0.33;0.33;;;;;;;;5074579;28;47370;-71
2022/10/08 01:06:36;;;;;;;;;1.00;1.00;;;;;;;;5071124;27;45303;-71
2022/10/08 01:09:08;;;;;;;;;1.67;1.67;;;;;;;;5074767;27;45414;-71
2022/10/08 01:11:52;;;;;;;;;1.33;1.33;;;;;;;;5077540;28;45378;-71
2022/10/08 01:14:40;;;;;;;;;2.67;1.67;;;;;;;;5077915;28;46139;-71
2022/10/08 01:17:09;;;;;;;;;3.67;2.67;;;;;;;;5077903;27;45369;-71
2022/10/08 01:19:46;;;;;;;;;1.00;1.00;;;;;;;;5078086;27;45358;-71
2022/10/08 01:22:28;;;;;;;;;1.67;1.67;;;;;;;;5077426;27;45314;-71
2022/10/08 01:27:42;;;;;;;;;0.67;0.67;;;;;;;;5051473;28;45469;-71
2022/10/08 01:30:13;;;;;;;;;3.00;1.00;;;;;;;;5077917;27;45981;-70
2022/10/08 01:32:51;;;;;;;;;1.00;1.00;;;;;;;;5063355;27;45229;-71
2022/10/08 01:35:23;;;;;;;;;2.00;2.00;;;;;;;;5077695;27;46941;-71
2022/10/08 01:37:49;;;;;;;;;1.00;1.00;;;;;;;;5077341;27;45292;-71
2022/10/08 01:40:19;;;;;;;;;0.67;0.67;;;;;;;;5077835;28;45373;-71
2022/10/08 01:42:46;;;;;;;;;2.00;0.00;;;;;;;;5077677;27;45293;-71
2022/10/08 01:45:14;;;;;;;;;1.00;1.00;;;;;;;;5076163;28;47089;-71
2022/10/08 01:47:41;;;;;;;;;2.67;1.00;;;;;;;;5077595;27;45411;-71
2022/10/08 01:50:27;;;;;;;;;2.00;1.67;;;;;;;;5077619;27;45338;-71
2022/10/08 01:52:55;;;;;;;;;1.00;1.00;;;;;;;;5077327;27;45541;-72
2022/10/08 01:55:24;;;;;;;;;3.33;2.33;;;;;;;;5077236;27;47184;-71
2022/10/08 01:57:50;;;;;;;;;1.00;1.00;;;;;;;;5075927;28;45439;-71
2022/10/08 02:00:16;;;;;;;;;1.00;1.00;;;;;;;;5077532;27;45488;-71
2022/10/08 02:02:41;;;;;;;;;3.00;1.00;;;;;;;;5077147;27;45271;-71
2022/10/08 02:05:07;;;;;;;;;2.67;1.67;;;;;;;;5073236;27;46110;-71
2022/10/08 02:07:35;;;;;;;;;1.00;1.00;;;;;;;;5077178;27;45362;-70
2022/10/08 02:10:08;;;;;;;;;1.00;1.00;;;;;;;;5077280;27;45489;-71
2022/10/08 02:12:33;;;;;;;;;0.67;0.67;;;;;;;;5077148;27;45443;-70
2022/10/08 02:14:59;;;;;;;;;1.00;1.00;;;;;;;;5076969;27;45271;-70
2022/10/08 02:17:34;;;;;;;;;1.00;1.00;;;;;;;;5077098;27;45279;-71
2022/10/08 02:20:10;;;;;;;;;2.33;1.00;;;;;;;;5076711;27;45437;-72
2022/10/08 02:22:37;;;;;;;;;1.67;0.67;;;;;;;;5049820;28;45244;-71
2022/10/08 02:25:10;;;;;;;;;1.00;1.00;;;;;;;;5077105;28;46438;-71
2022/10/08 02:27:41;;;;;;;;;1.67;1.33;;;;;;;;5076756;27;45469;-71
2022/10/08 02:30:08;;;;;;;;;3.33;3.00;;;;;;;;5076991;27;45273;-71
2022/10/08 02:33:12;;;;;;;;;1.00;1.00;;;;;;;;5062080;27;45280;-70
2022/10/08 02:35:44;;;;;;;;;3.00;0.67;;;;;;;;5019562;28;45457;-71
2022/10/08 02:38:12;;;;;;;;;4.00;1.67;;;;;;;;5021714;28;45513;-71
2022/10/08 02:40:40;;;;;;;;;3.00;1.00;;;;;;;;5034060;28;45311;-71
2022/10/08 02:43:08;;;;;;;;;2.67;1.00;;;;;;;;5033983;28;45496;-71
2022/10/08 02:45:40;;;;;;;;;1.00;1.00;;;;;;;;5033525;28;46374;-71
2022/10/08 02:48:10;;;;;;;;;1.00;1.00;;;;;;;;5033767;28;45368;-71
2022/10/08 02:50:38;;;;;;;;;1.00;1.00;;;;;;;;5033809;28;45519;-71
2022/10/08 02:53:03;;;;;;;;;2.00;1.00;;;;;;;;5033896;28;45471;-71
2022/10/08 02:55:28;;;;;;;;;3.00;1.00;;;;;;;;5033787;28;46988;-71
2022/10/08 02:57:58;;;;;;;;;2.00;1.00;;;;;;;;5020256;28;45476;-72
2022/10/08 03:00:24;;;;;;;;;1.00;1.00;;;;;;;;5020464;28;45839;-71
2022/10/08 03:03:00;;;;;;;;;1.00;1.00;;;;;;;;5033359;28;45709;-71
2022/10/08 03:05:26;;;;;;;;;1.00;1.00;;;;;;;;5034229;28;45373;-71
2022/10/08 03:07:53;;;;;;;;;2.33;1.33;;;;;;;;5076253;27;45912;-70
2022/10/08 03:10:18;;;;;;;;;1.67;1.00;;;;;;;;5061952;27;45394;-71
2022/10/08 03:12:44;;;;;;;;;0.00;0.00;;;;;;;;5076434;27;45457;-71
2022/10/08 03:15:10;;;;;;;;;1.00;1.00;;;;;;;;5075910;27;47005;-71
2022/10/08 03:17:37;;;;;;;;;1.00;1.00;;;;;;;;5075985;27;45456;-70
2022/10/08 03:20:04;;;;;;;;;0.33;0.33;;;;;;;;5074991;28;45367;-71
2022/10/08 03:22:30;;;;;;;;;1.00;1.00;;;;;;;;5076031;27;45460;-71
2022/10/08 03:24:55;;;;;;;;;1.33;1.00;;;;;;;;5076194;27;46809;-71
2022/10/08 03:27:20;;;;;;;;;1.00;1.00;;;;;;;;5057013;27;45375;-71
2022/10/08 03:29:46;;;;;;;;;1.00;1.00;;;;;;;;5066212;28;45299;-71
2022/10/08 03:32:11;;;;;;;;;0.00;0.00;;;;;;;;5075784;27;45494;-71
2022/10/08 03:34:36;;;;;;;;;2.00;1.00;;;;;;;;5075313;27;46110;-71
2022/10/08 03:37:01;;;;;;;;;1.00;1.00;;;;;;;;5064771;27;45316;-71
2022/10/08 03:39:26;;;;;;;;;1.00;1.00;;;;;;;;5075729;28;45446;-71
2022/10/08 03:41:51;;;;;;;;;0.67;0.67;;;;;;;;5075874;27;45428;-70
2022/10/08 03:44:17;;;;;;;;;0.33;0.33;;;;;;;;5075818;27;47213;-71
2022/10/08 03:46:42;;;;;;;;;1.67;0.33;;;;;;;;5075276;27;45482;-71
2022/10/08 03:49:07;;;;;;;;;1.00;1.00;;;;;;;;5075878;27;45723;-71
2022/10/08 03:51:32;;;;;;;;;0.33;0.33;;;;;;;;5075847;27;45493;-71
2022/10/08 03:53:58;;;;;;;;;0.33;0.33;;;;;;;;5075512;27;46173;-71
2022/10/08 03:56:26;;;;;;;;;1.33;1.33;;;;;;;;5075428;27;45390;-71
2022/10/08 03:58:52;;;;;;;;;1.00;1.00;;;;;;;;5075702;27;45924;-71
2022/10/08 04:01:17;;;;;;;;;1.00;1.00;;;;;;;;5061361;27;45334;-70
2022/10/08 04:03:44;;;;;;;;;1.00;1.00;;;;;;;;5057056;28;46070;-71
2022/10/08 04:06:09;;;;;;;;;1.33;1.33;;;;;;;;5051983;28;45377;-71
2022/10/08 04:08:34;;;;;;;;;1.00;1.00;;;;;;;;5055084;28;45427;-71
2022/10/08 04:11:04;;;;;;;;;1.67;1.67;;;;;;;;5055314;28;45442;-71
2022/10/08 04:13:29;;;;;;;;;1.00;0.00;;;;;;;;5054661;28;47351;-70
2022/10/08 04:15:58;;;;;;;;;0.00;0.00;;;;;;;;5054669;28;45491;-70
2022/10/08 04:18:23;;;;;;;;;0.00;0.00;;;;;;;;5055221;28;45372;-71
2022/10/08 04:20:49;;;;;;;;;2.67;0.67;;;;;;;;5054900;28;45376;-70
2022/10/08 04:23:14;;;;;;;;;2.67;1.00;;;;;;;;5054838;28;46171;-71
2022/10/08 04:25:47;;;;;;;;;1.00;1.00;;;;;;;;5054781;28;45411;-70
2022/10/08 04:28:12;;;;;;;;;0.00;0.00;;;;;;;;5055280;28;45392;-71
2022/10/08 04:30:37;;;;;;;;;1.33;1.33;;;;;;;;5054288;28;45475;-70
2022/10/08 04:33:02;;;;;;;;;0.33;0.33;;;;;;;;5054842;28;46023;-71
2022/10/08 04:35:28;;;;;;;;;1.00;1.00;;;;;;;;5054733;28;45313;-71
2022/10/08 04:37:53;;;;;;;;;0.00;0.00;;;;;;;;5036751;28;45316;-71
2022/10/08 04:40:18;;;;;;;;;0.33;0.33;;;;;;;;5047875;28;45549;-70
2022/10/08 04:42:43;;;;;;;;;2.00;1.00;;;;;;;;5054297;28;47315;-70
2022/10/08 04:45:08;;;;;;;;;2.00;0.00;;;;;;;;5055366;28;45501;-70
2022/10/08 04:47:34;;;;;;;;;1.00;1.00;;;;;;;;5045618;28;45848;-70
2022/10/08 04:49:59;;;;;;;;;1.00;1.00;;;;;;;;5056814;28;45305;-71
2022/10/08 04:52:24;;;;;;;;;2.33;0.67;;;;;;;;5058238;28;45990;-70
2022/10/08 04:54:49;;;;;;;;;1.67;0.00;;;;;;;;5058084;28;45280;-70
2022/10/08 04:57:14;;;;;;;;;2.00;2.00;;;;;;;;5058241;28;45310;-70
2022/10/08 04:59:40;;;;;;;;;0.00;0.00;;;;;;;;5057877;28;45420;-70
2022/10/08 05:02:05;;;;;;;;;0.67;0.67;;;;;;;;5059787;28;45887;-70
2022/10/08 05:04:30;;;;;;;;;1.00;1.00;;;;;;;;5056693;28;45404;-71
2022/10/08 05:06:55;;;;;;;;;1.00;0.33;;;;;;;;5056161;28;45331;-71
2022/10/08 05:09:20;;;;;;;;;2.00;0.33;;;;;;;;5058079;28;45389;-71
2022/10/08 05:11:46;;;;;;;;;1.67;0.00;;;;;;;;5057645;28;45995;-71
2022/10/08 05:14:11;;;;;;;;;1.00;1.00;;;;;;;;5057354;28;45351;-70
2022/10/08 05:16:36;;;;;;;;;1.67;1.00;;;;;;;;5057869;28;45362;-71
2022/10/08 05:19:02;;;;;;;;;1.67;1.00;;;;;;;;5057935;28;45437;-71
2022/10/08 05:21:28;;;;;;;;;1.00;1.00;;;;;;;;5057594;28;45340;-70
2022/10/08 05:23:54;;;;;;;;;0.33;0.33;;;;;;;;5053742;28;45552;-71
2022/10/08 05:26:24;;;;;;;;;1.67;1.33;;;;;;;;5047533;28;45348;-70
2022/10/08 05:28:52;;;;;;;;;0.67;0.67;;;;;;;;5057245;28;45600;-70
2022/10/08 05:31:18;;;;;;;;;1.00;1.00;;;;;;;;5057370;28;45422;-70
2022/10/08 05:33:43;;;;;;;;;0.33;0.33;;;;;;;;5056731;28;45404;-71
2022/10/08 05:36:14;;;;;;;;;0.67;0.67;;;;;;;;5040121;28;45378;-70
2022/10/08 05:38:42;;;;;;;;;0.00;0.00;;;;;;;;5050835;28;45558;-70
2022/10/08 05:41:08;;;;;;;;;0.00;0.00;;;;;;;;5057023;28;47009;-71
2022/10/08 05:43:34;;;;;;;;;1.00;1.00;;;;;;;;5056878;28;45356;-70
2022/10/08 05:45:59;;;;;;;;;0.67;0.67;;;;;;;;5057418;28;45388;-71
2022/10/08 05:48:24;;;;;;;;;1.00;1.00;;;;;;;;5057418;28;45338;-70
2022/10/08 05:50:49;;;;;;;;;1.00;1.00;;;;;;;;5057464;28;46218;-70
2022/10/08 05:53:14;;;;;;;;;1.00;1.00;;;;;;;;5057168;28;45307;-71
2022/10/08 05:55:39;;;;;;;;;1.00;1.00;;;;;;;;5057006;28;45354;-70
2022/10/08 05:58:05;;;;;;;;;1.00;1.00;;;;;;;;5056644;28;45281;-71
2022/10/08 06:00:30;;;;;;;;;2.00;1.00;;;;;;;;5049561;28;46073;-70
2022/10/08 06:02:55;;;;;;;;;1.33;1.00;;;;;;;;5058902;28;45735;-70
2022/10/08 06:05:20;;;;;;;;;1.33;1.33;;;;;;;;5073770;28;45515;-70
2022/10/08 06:07:45;;;;;;;;;0.00;0.00;;;;;;;;5077384;28;45423;-70
2022/10/08 06:10:11;;;;;;;;;1.33;1.33;;;;;;;;5058975;28;47242;-70
2022/10/08 06:12:36;;;;;;;;;1.00;1.00;;;;;;;;5076907;28;45459;-70
2022/10/08 06:15:01;;;;;;;;;0.33;0.33;;;;;;;;5077319;28;45348;-70
2022/10/08 06:17:26;;;;;;;;;0.00;0.00;;;;;;;;5077264;28;45317;-70
2022/10/08 06:19:52;;;;;;;;;0.00;0.00;;;;;;;;5077144;28;45385;-70
2022/10/08 06:22:17;;;;;;;;;0.00;0.00;;;;;;;;5072988;28;45360;-70
2022/10/08 06:24:42;;;;;;;;;0.00;0.00;;;;;;;;5067158;28;45416;-70
2022/10/08 06:27:07;;;;;;;;;1.00;1.00;;;;;;;;5076887;28;45411;-70
2022/10/08 06:29:32;;;;;;;;;0.00;0.00;;;;;;;;5076976;28;46044;-70
2022/10/08 06:31:58;;;;;;;;;1.00;1.00;;;;;;;;5076907;28;45406;-70
2022/10/08 06:34:23;;;;;;;;;0.00;0.00;;;;;;;;5077097;28;45309;-69
2022/10/08 06:36:48;;;;;;;;;0.00;0.00;;;;;;;;5067430;28;45617;-70
2022/10/08 06:39:14;;;;;;;;;2.00;0.33;;;;;;;;5070386;28;46855;-71
2022/10/08 06:41:40;;;;;;;;;1.00;1.00;;;;;;;;5065848;28;45405;-71
2022/10/08 06:44:06;;;;;;;;;2.00;1.67;;;;;;;;5076953;28;45485;-71
2022/10/08 06:46:32;;;;;;;;;0.00;0.00;;;;;;;;5076629;28;45436;-70
2022/10/08 06:48:58;;;;;;;;;1.00;1.00;;;;;;;;5076479;27;45606;-71
2022/10/08 06:51:23;;;;;;;;;1.00;1.00;;;;;;;;5076641;28;45685;-71
2022/10/08 06:53:53;;;;;;;;;1.00;1.00;;;;;;;;5075472;28;45377;-71
2022/10/08 06:56:19;;;;;;;;;3.00;1.00;;;;;;;;5076251;28;45330;-70
2022/10/08 06:58:46;;;;;;;;;2.33;2.00;;;;;;;;5076142;28;46922;-71
2022/10/08 07:01:12;;;;;;;;;0.00;0.00;;;;;;;;5076562;28;45292;-71
2022/10/08 07:03:37;;;;;;;;;0.00;0.00;;;;;;;;5075827;28;45384;-71
2022/10/08 07:06:04;;;;;;;;;0.00;0.00;;;;;;;;5072764;27;45313;-71
2022/10/08 07:08:29;;;;;;;;;1.00;1.00;;;;;;;;5075297;28;46546;-71
2022/10/08 07:10:55;;;;;;;;;1.00;1.00;;;;;;;;5076098;28;45281;-71
2022/10/08 07:13:20;;;;;;;;;0.33;0.00;;;;;;;;5076105;28;45428;-71
2022/10/08 07:15:45;;;;;;;;;1.00;1.00;;;;;;;;5069507;28;45335;-71
2022/10/08 07:18:11;;;;;;;;;1.00;1.00;;;;;;;;5068716;28;47316;-71
2022/10/08 07:20:37;;;;;;;;;1.33;1.00;;;;;;;;5076049;28;45467;-71
2022/10/08 07:23:02;;;;;;;;;1.33;1.00;;;;;;;;5076390;28;45467;-71
2022/10/08 07:25:27;;;;;;;;;0.00;0.00;;;;;;;;5075631;28;45420;-71
2022/10/08 07:27:53;;;;;;;;;0.00;0.00;;;;;;;;5076100;28;46173;-72
2022/10/08 07:30:18;;;;;;;;;0.33;0.33;;;;;;;;5075968;28;45572;-70
2022/10/08 07:32:43;;;;;;;;;2.00;2.00;;;;;;;;5076076;28;45476;-70
2022/10/08 07:35:08;;;;;;;;;1.00;1.00;;;;;;;;5076028;28;45391;-71
2022/10/08 07:37:34;;;;;;;;;1.67;0.33;;;;;;;;5064154;28;45621;-70
2022/10/08 07:39:59;;;;;;;;;1.00;0.00;;;;;;;;5075577;28;45377;-71
2022/10/08 07:42:24;;;;;;;;;1.00;1.00;;;;;;;;5076023;27;45414;-71
2022/10/08 07:44:49;;;;;;;;;1.00;1.00;;;;;;;;5071660;28;45344;-70
2022/10/08 07:47:14;;;;;;;;;2.67;1.00;;;;;;;;5065388;28;46216;-71
2022/10/08 07:49:39;;;;;;;;;2.67;1.00;;;;;;;;5075706;28;45443;-70
2022/10/08 07:52:06;;;;;;;;;0.33;0.33;;;;;;;;5075878;28;45800;-71
2022/10/08 07:54:32;;;;;;;;;1.00;1.00;;;;;;;;5075539;28;45431;-71
2022/10/08 07:57:00;;;;;;;;;1.00;1.00;;;;;;;;5075798;28;45399;-71
2022/10/08 07:59:26;;;;;;;;;1.00;1.00;;;;;;;;5062995;28;45312;-71
2022/10/08 08:01:51;;;;;;;;;1.00;1.00;;;;;;;;5059202;28;45316;-70
2022/10/08 08:04:16;;;;;;;;;1.00;1.00;;;;;;;;5065310;28;45310;-71
2022/10/08 08:06:42;;;;;;;;;1.00;1.00;;;;;;;;5071071;28;46240;-71
2022/10/08 08:09:08;;;;;;;;;2.33;2.00;;;;;;;;5066819;28;45410;-71
2022/10/08 08:11:33;;;;;;;;;1.00;1.00;;;;;;;;5069291;28;45338;-71
2022/10/08 08:13:58;;;;;;;;;0.00;0.00;;;;;;;;5075466;28;45314;-71
2022/10/08 08:16:25;;;;;;;;;0.67;0.67;;;;;;;;5075154;28;46224;-71
2022/10/08 08:18:51;;;;;;;;;1.00;1.00;;;;;;;;5075799;28;45501;-70
2022/10/08 08:21:18;;;;;;;;;1.00;1.00;;;;;;;;5078917;28;45375;-71
2022/10/08 08:23:46;;;;;;;;;0.67;0.67;;;;;;;;5064105;28;45363;-71
2022/10/08 08:26:31;;;;;;;;;2.00;0.33;;;;;;;;5078518;28;47282;-71
2022/10/08 08:28:58;;;;;;;;;2.00;1.00;;;;;;;;5075178;28;45444;-71
2022/10/08 08:31:23;;;;;;;;;1.00;1.00;;;;;;;;5066187;28;45470;-71
2022/10/08 08:33:50;;;;;;;;;1.33;0.00;;;;;;;;5078717;28;45299;-71
2022/10/08 08:36:19;;;;;;;;;1.00;0.00;;;;;;;;5070676;28;46306;-71
2022/10/08 08:38:44;;;;;;;;;1.00;1.00;;;;;;;;5072409;28;45411;-71
2022/10/08 08:41:19;;;;;;;;;1.33;0.33;;;;;;;;5078296;28;45280;-71
2022/10/08 08:43:44;;;;;;;;;2.00;2.00;;;;;;;;5078900;28;45476;-71
2022/10/08 08:46:12;;;;;;;;;0.00;0.00;;;;;;;;5078216;28;45499;-71
2022/10/08 08:48:38;;;;;;;;;1.00;1.00;;;;;;;;5071252;28;45492;-71
2022/10/08 08:51:04;;;;;;;;;1.00;0.33;;;;;;;;5071643;28;45383;-75
2022/10/08 08:53:30;;;;;;;;;2.00;2.00;;;;;;;;5078233;28;45423;-74
2022/10/08 08:55:57;;;;;;;;;6.33;3.67;;;;;;;;5064188;28;47039;-75
2022/10/08 08:58:38;;;;;;;;;5.00;2.00;;;;;;;;5072777;28;45410;-75
2022/10/08 09:01:12;;;;;;;;;2.00;2.00;;;;;;;;5078327;28;45406;-74
2022/10/08 09:03:48;;;;;;;;;3.33;2.00;;;;;;;;5078374;28;45353;-74
2022/10/08 09:06:14;;;;;;;;;4.00;2.67;;;;;;;;5068577;28;45409;-73
2022/10/08 09:08:43;;;;;;;;;2.00;2.00;;;;;;;;5077983;28;45870;-74
2022/10/08 09:11:11;;;;;;;;;1.67;1.67;;;;;;;;5078337;28;45523;-76
2022/10/08 09:13:39;;;;;;;;;5.33;1.67;;;;;;;;5078450;28;45328;-74
2022/10/08 09:16:04;;;;;;;;;4.00;2.33;;;;;;;;5077859;28;47587;-75
2022/10/08 09:18:30;;;;;;;;;1.00;1.00;;;;;;;;5076329;28;45677;-73
2022/10/08 09:20:55;;;;;;;;;3.00;1.00;;;;;;;;5077647;28;45414;-74
2022/10/08 09:23:21;;;;;;;;;2.67;1.33;;;;;;;;5070797;28;45254;-74
2022/10/08 09:25:52;;;;;;;;;1.00;1.00;;;;;;;;5071575;28;45416;-73
2022/10/08 09:28:36;;;;;;;;;1.00;0.00;;;;;;;;5078076;28;45374;-75
2022/10/08 09:31:16;;;;;;;;;2.33;1.00;;;;;;;;5062642;28;45372;-75
2022/10/08 09:33:42;;;;;;;;;6.67;1.33;;;;;;;;5078134;28;45481;-75
2022/10/08 09:36:08;;;;;;;;;1.00;1.00;;;;;;;;5074155;28;46419;-75
2022/10/08 09:38:35;;;;;;;;;3.00;2.00;;;;;;;;5077956;28;45351;-74
2022/10/08 09:41:05;;;;;;;;;2.00;1.00;;;;;;;;5078007;28;45371;-74
2022/10/08 09:43:32;;;;;;;;;2.67;1.33;;;;;;;;5078075;28;45415;-73
2022/10/08 09:45:57;;;;;;;;;2.67;2.67;;;;;;;;5077664;28;46943;-74
2022/10/08 09:48:24;;;;;;;;;1.00;1.00;;;;;;;;5077383;28;45300;-74
2022/10/08 09:50:57;;;;;;;;;1.67;1.33;;;;;;;;5077890;28;45338;-74
2022/10/08 09:53:25;;;;;;;;;2.00;1.00;;;;;;;;5053925;28;45462;-75
2022/10/08 09:55:58;;;;;;;;;4.33;1.67;;;;;;;;5067300;28;46310;-75
2022/10/08 09:58:23;;;;;;;;;1.00;1.00;;;;;;;;5077614;28;45364;-74
2022/10/08 10:01:07;;;;;;;;;1.00;1.00;;;;;;;;5077365;28;45596;-74
2022/10/08 10:03:33;;;;;;;;;3.33;1.00;;;;;;;;5076969;28;45485;-75
2022/10/08 10:05:59;;;;;;;;;0.00;0.00;;;;;;;;5073797;28;46189;-74
2022/10/08 10:08:40;;;;;;;;;2.33;1.00;;;;;;;;5063205;28;45576;-73
2022/10/08 10:11:05;;;;;;;;;1.00;1.00;;;;;;;;5077117;28;45405;-72
2022/10/08 10:13:37;;;;;;;;;1.00;1.00;;;;;;;;5063107;28;45494;-72
2022/10/08 10:16:16;;;;;;;;;1.00;1.00;;;;;;;;5068213;28;46218;-73
2022/10/08 10:18:44;;;;;;;;;0.67;0.67;;;;;;;;5068813;28;45460;-72
2022/10/08 10:21:13;;;;;;;;;1.00;0.00;;;;;;;;5056844;28;45344;-73
2022/10/08 10:23:49;;;;;;;;;0.00;0.00;;;;;;;;5060469;28;45520;-72
2022/10/08 10:26:21;;;;;;;;;3.00;1.00;;;;;;;;5056299;28;46497;-73
2022/10/08 10:28:57;;;;;;;;;1.00;1.00;;;;;;;;5056601;28;45318;-73
2022/10/08 10:31:41;;;;;;;;;1.00;1.00;;;;;;;;5068305;28;45363;-73
2022/10/08 10:34:12;;;;;;;;;3.00;1.00;;;;;;;;5042237;28;45488;-73
2022/10/08 10:36:41;;;;;;;;;2.67;1.00;;;;;;;;5056357;28;46004;-73
2022/10/08 10:39:21;;;;;;;;;2.00;0.67;;;;;;;;5070991;28;45351;-72
2022/10/08 10:41:59;;;;;;;;;1.33;0.67;;;;;;;;5076700;28;45388;-73
2022/10/08 10:44:48;;;;;;;;;1.00;1.00;;;;;;;;5076156;28;45376;-73
2022/10/08 10:47:14;;;;;;;;;0.67;0.67;;;;;;;;5064897;28;45534;-73
2022/10/08 10:49:40;;;;;;;;;0.00;0.00;;;;;;;;5076410;28;45454;-72
2022/10/08 10:52:17;;;;;;;;;2.00;1.00;;;;;;;;5076943;28;45545;-73
2022/10/08 10:54:45;;;;;;;;;3.00;1.00;;;;;;;;5065261;28;45314;-75
2022/10/08 10:57:15;;;;;;;;;0.00;0.00;;;;;;;;5070856;28;46155;-73
2022/10/08 10:59:46;;;;;;;;;0.00;0.00;;;;;;;;5068708;28;45404;-74
2022/10/08 11:02:15;;;;;;;;;0.67;0.67;;;;;;;;5076231;28;45420;-74
2022/10/08 11:04:40;;;;;;;;;0.00;0.00;;;;;;;;5073759;28;45349;-73
2022/10/08 11:07:17;;;;;;;;;2.67;0.67;;;;;;;;5073442;28;45347;-71
2022/10/08 11:09:49;;;;;;;;;0.00;0.00;;;;;;;;5076589;28;45382;-71
2022/10/08 11:12:20;;;;;;;;;3.33;0.33;;;;;;;;5076321;28;45351;-71
2022/10/08 11:14:58;;;;;;;;;0.67;0.67;;;;;;;;5076561;28;45400;-71
2022/10/08 11:17:23;;;;;;;;;3.00;1.00;;;;;;;;5075641;28;46320;-71
2022/10/08 11:20:01;;;;;;;;;2.00;0.00;;;;;;;;5076076;28;45316;-71
2022/10/08 11:22:33;;;;;;;;;1.00;1.00;;;;;;;;5076356;28;45460;-71
2022/10/08 11:25:07;;;;;;;;;2.00;0.00;;;;;;;;5076176;28;45307;-71
2022/10/08 11:27:46;;;;;;;;;1.00;1.00;;;;;;;;5065668;28;45519;-71
2022/10/08 11:30:14;;;;;;;;;3.00;1.00;;;;;;;;5051073;28;45392;-71
2022/10/08 11:32:40;;;;;;;;;0.00;0.00;;;;;;;;5045774;28;45305;-71
2022/10/08 11:35:11;;;;;;;;;2.00;0.33;;;;;;;;5055593;28;45396;-72
2022/10/08 11:37:59;;;;;;;;;0.00;0.00;;;;;;;;5055491;28;46183;-72
2022/10/08 11:40:33;;;;;;;;;0.67;0.00;;;;;;;;5055372;28;45392;-72
2022/10/08 11:43:03;;;;;;;;;0.67;0.67;;;;;;;;5055825;28;45257;-72
2022/10/08 11:45:30;;;;;;;;;0.00;0.00;;;;;;;;5055204;28;45483;-72
2022/10/08 11:47:57;;;;;;;;;2.00;0.00;;;;;;;;5055211;28;45945;-72
2022/10/08 11:50:41;;;;;;;;;2.33;0.33;;;;;;;;5055458;28;45291;-72
2022/10/08 11:53:09;;;;;;;;;0.67;0.00;;;;;;;;5055309;28;45448;-72
2022/10/08 11:55:35;;;;;;;;;0.00;0.00;;;;;;;;5054956;28;45463;-72
2022/10/08 11:58:01;;;;;;;;;0.00;0.00;;;;;;;;5042642;28;46980;-71
2022/10/08 12:00:26;;;;;;;;;2.33;1.67;;;;;;;;5050645;28;45451;-72
2022/10/08 12:02:52;;;;;;;;;1.00;0.00;;;;;;;;5055155;28;45340;-72
2022/10/08 12:05:21;;;;;;;;;1.67;0.00;;;;;;;;5054929;28;45319;-72
2022/10/08 12:07:54;;;;;;;;;0.33;0.33;;;;;;;;5055302;28;47208;-72
2022/10/08 12:10:24;;;;;;;;;1.00;1.00;;;;;;;;5055341;28;45419;-72
2022/10/08 12:12:50;;;;;;;;;0.67;0.67;;;;;;;;5055047;28;45473;-72
2022/10/08 12:15:24;;;;;;;;;0.00;0.00;;;;;;;;5054643;28;45355;-71
2022/10/08 12:17:53;;;;;;;;;0.33;0.33;;;;;;;;5059019;28;46242;-72
2022/10/08 12:20:20;;;;;;;;;0.67;0.33;;;;;;;;5064735;28;45450;-72
2022/10/08 12:22:58;;;;;;;;;1.00;1.00;;;;;;;;5055029;28;45349;-72
2022/10/08 12:25:29;;;;;;;;;0.00;0.00;;;;;;;;5055023;28;45456;-72
2022/10/08 12:28:14;;;;;;;;;0.67;0.67;;;;;;;;5054458;28;46285;-71
2022/10/08 12:30:49;;;;;;;;;0.00;0.00;;;;;;;;5054738;28;45443;-71
2022/10/08 12:33:14;;;;;;;;;1.00;1.00;;;;;;;;5054795;28;45336;-72
2022/10/08 12:35:49;;;;;;;;;0.00;0.00;;;;;;;;5055172;28;45311;-72
2022/10/08 12:38:22;;;;;;;;;0.00;0.00;;;;;;;;5054732;28;46367;-72
2022/10/08 12:40:53;;;;;;;;;0.00;0.00;;;;;;;;5054626;28;45475;-71
2022/10/08 12:43:37;;;;;;;;;0.33;0.00;;;;;;;;5054401;28;45317;-71
2022/10/08 12:46:17;;;;;;;;;0.00;0.00;;;;;;;;5043037;28;45710;-71
2022/10/08 12:48:50;;;;;;;;;0.00;0.00;;;;;;;;5054129;28;47210;-72
2022/10/08 12:51:23;;;;;;;;;0.00;0.00;;;;;;;;5054566;28;45415;-71
2022/10/08 12:53:48;;;;;;;;;0.67;0.67;;;;;;;;5054625;28;45391;-71
2022/10/08 12:56:19;;;;;;;;;0.33;0.33;;;;;;;;5054661;28;45589;-71
2022/10/08 12:58:46;;;;;;;;;1.67;0.00;;;;;;;;5054084;28;46064;-71
2022/10/08 13:01:13;;;;;;;;;0.00;0.00;;;;;;;;5054587;28;45454;-71
2022/10/08 13:03:38;;;;;;;;;0.67;0.67;;;;;;;;5054463;28;45286;-71
2022/10/08 13:06:36;;;;;;;;;0.00;0.00;;;;;;;;5055009;28;45296;-71
2022/10/08 13:09:11;;;;;;;;;0.00;0.00;;;;;;;;5001985;28;46204;-71
2022/10/08 13:11:36;;;;;;;;;0.00;0.00;;;;;;;;4995429;28;45527;-72
2022/10/08 13:14:03;;;;;;;;;0.00;0.00;;;;;;;;5010037;28;45419;-72
2022/10/08 13:16:43;;;;;;;;;1.00;1.00;;;;;;;;5015705;28;45636;-71
2022/10/08 13:19:16;;;;;;;;;1.00;1.00;;;;;;;;5015249;28;45942;-71
2022/10/08 13:21:52;;;;;;;;;2.00;0.00;;;;;;;;5015820;28;45367;-70
2022/10/08 13:24:17;;;;;;;;;1.33;0.00;;;;;;;;5015626;28;45271;-71
2022/10/08 13:26:42;;;;;;;;;0.00;0.00;;;;;;;;5015105;28;45412;-71
2022/10/08 13:29:22;;;;;;;;;0.67;0.00;;;;;;;;5015626;28;46005;-71
2022/10/08 13:32:05;;;;;;;;;0.00;0.00;;;;;;;;5015373;28;45466;-71
2022/10/08 13:34:50;;;;;;;;;0.00;0.00;;;;;;;;5015421;28;45434;-71
2022/10/08 13:37:21;;;;;;;;;0.67;0.00;;;;;;;;4998413;28;45631;-71
2022/10/08 13:40:09;;;;;;;;;0.33;0.33;;;;;;;;5015261;28;46943;-71
2022/10/08 13:42:38;;;;;;;;;0.67;0.00;;;;;;;;5000131;28;45476;-71
2022/10/08 13:45:11;;;;;;;;;2.67;0.00;;;;;;;;5030401;28;45424;-71
2022/10/08 13:47:36;;;;;;;;;2.00;0.00;;;;;;;;5057428;28;45384;-71
2022/10/08 13:50:02;;;;;;;;;1.00;1.00;;;;;;;;5056983;28;46183;-71
2022/10/08 13:52:28;;;;;;;;;1.00;0.67;;;;;;;;5057238;28;45329;-71
2022/10/08 13:54:57;;;;;;;;;0.00;0.00;;;;;;;;5057607;28;45471;-71
2022/10/08 13:57:22;;;;;;;;;0.00;0.00;;;;;;;;5056598;28;45428;-71
2022/10/08 13:59:48;;;;;;;;;0.00;0.00;;;;;;;;5057179;28;46200;-70
2022/10/08 14:02:13;;;;;;;;;0.00;0.00;;;;;;;;5056673;28;45340;-71
2022/10/08 14:04:38;;;;;;;;;0.67;0.00;;;;;;;;5057337;28;45223;-71
2022/10/08 14:07:04;;;;;;;;;0.00;0.00;;;;;;;;5056585;28;45514;-71
2022/10/08 14:09:30;;;;;;;;;0.00;0.00;;;;;;;;5057004;28;46056;-71
2022/10/08 14:11:58;;;;;;;;;1.67;0.00;;;;;;;;5056559;28;45426;-71
2022/10/08 14:14:23;;;;;;;;;0.00;0.00;;;;;;;;5056977;28;45607;-71
2022/10/08 14:16:49;;;;;;;;;0.00;0.00;;;;;;;;5056671;28;45816;-72
2022/10/08 14:19:15;;;;;;;;;0.00;0.00;;;;;;;;5056539;28;46214;-71
2022/10/08 14:21:40;;;;;;;;;0.00;0.00;;;;;;;;5057077;28;45323;-71
2022/10/08 14:24:05;;;;;;;;;0.00;0.00;;;;;;;;5056810;28;45625;-71
2022/10/08 14:26:31;;;;;;;;;1.67;1.00;;;;;;;;5056150;28;45479;-71
2022/10/08 14:28:57;;;;;;;;;0.00;0.00;;;;;;;;5056505;28;46222;-71
2022/10/08 14:31:22;;;;;;;;;0.00;0.00;;;;;;;;5056769;28;45567;-71
2022/10/08 14:33:47;;;;;;;;;0.00;0.00;;;;;;;;5056784;28;45419;-71
2022/10/08 14:36:18;;;;;;;;;1.67;0.00;;;;;;;;5056720;28;45328;-71
2022/10/08 14:38:43;;;;;;;;;2.00;0.00;;;;;;;;5055941;28;45439;-70
2022/10/08 14:41:09;;;;;;;;;1.00;0.00;;;;;;;;5056486;28;45340;-71
2022/10/08 14:43:34;;;;;;;;;0.00;0.00;;;;;;;;5056408;28;45410;-71
2022/10/08 14:46:00;;;;;;;;;0.00;0.00;;;;;;;;5056654;28;45315;-71
2022/10/08 14:48:25;;;;;;;;;0.00;0.00;;;;;;;;5056304;28;46121;-71
2022/10/08 14:50:50;;;;;;;;;1.00;0.00;;;;;;;;5050534;28;45337;-71
2022/10/08 14:53:15;;;;;;;;;0.00;0.00;;;;;;;;5047898;28;45431;-71